Flood From: 19-02-2018 10:30 Until: 20-02-2018 06:00 warning for: Flood Level: Yellow info button

Although rather usual in this region, locally or potentially dangerous phenomena are expected. (such as local winds, summer thunderstorms, rising streams or high waves) Be aware and pay attention to the latest weather updates, especially if you carry out activities exposed to weather or close to a stream or shoreline. 


Meteo18 Weather Cam more information Meteo18 Weather Cam


Thunder radar more information blitzortung!


Rain radar more information rain snow radar


Visit our other weather sites:

Template documentation
and downloads

And another site



Weather Underground History page Text

Daily Summary for July 5, 2017 Units:  Both    English   Metric
« Previous Day
Next Day »
Daily Weekly Monthly Yearly Custom
  High: Low: Average:
Temperature: TemperatureC °F /  -17.8 °C 15.9 °F /  -8.9 °C 25.3 °F /  -3.7 °C
Dew Point: DewpointC °F /  -17.8 °C 12.9 °F /  -10.6 °C 15.3 °F /  -9.3 °C
Humidity: Humidity % 30 % 58 %
Wind Speed: WindSpeedKMH mph /  0 km/h - 2.9 mph /  4.7 km/h
Wind Gust: WindSpeedGustKMH mph /  0 km/h - -
Wind:- - SE
Pressure: PressurehPa in /  0 hPa 1015.5 in /  34384.8 hPa -
Precipitation: 0.0 in /  0 mm    
Historical Graphs
 
 
Tabular Data for July 5, 2017
Time Temperature Dew Point Pressure Wind Wind Speed Wind Gust Humidity Rainfall Rate (Hourly)
TemperatureC °F /  -17.8 °C DewpointC °F /  -17.8 °C PressurehPa in /  0 hPa Calm     Humidity % HourlyPrecipMM in /  0 mm
00:02 20.3 °F /  -6.5 °C 15.3 °F /  -9.3 °C 1018.8 in /  34496.6 hPa Calm     73 % 0.0 in /  0 mm
00:12 20.1 °F /  -6.6 °C 15.3 °F /  -9.3 °C 1018.5 in /  34486.4 hPa Calm     74 % 0.0 in /  0 mm
00:17 19.9 °F /  -6.7 °C 15.1 °F /  -9.4 °C 1018.8 in /  34496.6 hPa Calm     74 % 0.0 in /  0 mm
00:22 19.6 °F /  -6.9 °C 15.3 °F /  -9.3 °C 1018.8 in /  34496.6 hPa Calm     76 % 0.0 in /  0 mm
00:32 18.7 °F /  -7.4 °C 15.2 °F /  -9.3 °C 1018.8 in /  34496.6 hPa Calm     80 % 0.0 in /  0 mm
00:37 18.4 °F /  -7.6 °C 15.1 °F /  -9.4 °C 1018.8 in /  34496.6 hPa Calm     81 % 0.0 in /  0 mm
00:42 18.6 °F /  -7.4 °C 15.3 °F /  -9.3 °C 1018.8 in /  34496.6 hPa NNW 1.6 mph /  2.6 km/h   81 % 0.0 in /  0 mm
00:47 19.0 °F /  -7.2 °C 15.5 °F /  -9.2 °C 1018.8 in /  34496.6 hPa Calm   3.2 mph /  5.1 km/h 80 % 0.0 in /  0 mm
00:52 19.0 °F /  -7.2 °C 15.3 °F /  -9.3 °C 1018.8 in /  34496.6 hPa Calm   3.2 mph /  5.1 km/h 79 % 0.0 in /  0 mm
00:57 18.9 °F /  -7.3 °C 15.2 °F /  -9.3 °C 1018.8 in /  34496.6 hPa Calm   3.2 mph /  5.1 km/h 79 % 0.0 in /  0 mm
01:02 18.7 °F /  -7.4 °C 15.2 °F /  -9.3 °C 1018.8 in /  34496.6 hPa Calm   3.2 mph /  5.1 km/h 80 % 0.0 in /  0 mm
01:07 18.6 °F /  -7.4 °C 15.3 °F /  -9.3 °C 1018.8 in /  34496.6 hPa WNW 1.6 mph /  2.6 km/h 1.6 mph /  2.6 km/h 81 % 0.0 in /  0 mm
01:12 18.6 °F /  -7.4 °C 15.3 °F /  -9.3 °C 1018.8 in /  34496.6 hPa Calm   1.6 mph /  2.6 km/h 81 % 0.0 in /  0 mm
01:17 18.5 °F /  -7.5 °C 15.2 °F /  -9.3 °C 1018.5 in /  34486.4 hPa Calm   1.6 mph /  2.6 km/h 81 % 0.0 in /  0 mm
01:22 18.4 °F /  -7.6 °C 15.1 °F /  -9.4 °C 1018.5 in /  34486.4 hPa NNE 3.2 mph /  5.1 km/h 3.2 mph /  5.1 km/h 81 % 0.0 in /  0 mm
01:32 18.4 °F /  -7.6 °C 15.3 °F /  -9.3 °C 1018.5 in /  34486.4 hPa NNW 3.2 mph /  5.1 km/h 3.2 mph /  5.1 km/h 82 % 0.0 in /  0 mm
01:37 18.5 °F /  -7.5 °C 15.2 °F /  -9.3 °C 1018.5 in /  34486.4 hPa WNW 1.6 mph /  2.6 km/h 3.2 mph /  5.1 km/h 81 % 0.0 in /  0 mm
01:42 18.5 °F /  -7.5 °C 15.2 °F /  -9.3 °C 1018.5 in /  34486.4 hPa NW 1.6 mph /  2.6 km/h 3.2 mph /  5.1 km/h 81 % 0.0 in /  0 mm
01:47 18.6 °F /  -7.4 °C 15.3 °F /  -9.3 °C 1018.5 in /  34486.4 hPa NW 1.6 mph /  2.6 km/h 3.2 mph /  5.1 km/h 81 % 0.0 in /  0 mm
01:52 18.4 °F /  -7.6 °C 15.1 °F /  -9.4 °C 1018.5 in /  34486.4 hPa NNW 1.6 mph /  2.6 km/h 3.2 mph /  5.1 km/h 81 % 0.0 in /  0 mm
02:02 18.1 °F /  -7.7 °C 14.8 °F /  -9.6 °C 1018.2 in /  34476.3 hPa Calm   3.2 mph /  5.1 km/h 81 % 0.0 in /  0 mm
02:07 17.7 °F /  -7.9 °C 14.8 °F /  -9.6 °C 1018.2 in /  34476.3 hPa Calm   3.2 mph /  5.1 km/h 83 % 0.0 in /  0 mm
02:12 17.5 °F /  -8.1 °C 14.9 °F /  -9.5 °C 1018.5 in /  34486.4 hPa Calm   3.2 mph /  5.1 km/h 85 % 0.0 in /  0 mm
02:17 17.6 °F /  -8 °C 14.7 °F /  -9.6 °C 1018.5 in /  34486.4 hPa Calm   1.6 mph /  2.6 km/h 83 % 0.0 in /  0 mm
02:22 17.7 °F /  -7.9 °C 15.1 °F /  -9.4 °C 1018.5 in /  34486.4 hPa Calm   3.2 mph /  5.1 km/h 85 % 0.0 in /  0 mm
02:27 18.0 °F /  -7.8 °C 15.1 °F /  -9.4 °C 1018.5 in /  34486.4 hPa WNW 1.6 mph /  2.6 km/h 3.2 mph /  5.1 km/h 83 % 0.0 in /  0 mm
02:32 18.0 °F /  -7.8 °C 14.9 °F /  -9.5 °C 1018.5 in /  34486.4 hPa WNW 1.6 mph /  2.6 km/h 3.2 mph /  5.1 km/h 82 % 0.0 in /  0 mm
02:37 17.7 °F /  -7.9 °C 14.8 °F /  -9.6 °C 1018.5 in /  34486.4 hPa WNW 1.6 mph /  2.6 km/h 1.6 mph /  2.6 km/h 83 % 0.0 in /  0 mm
02:42 17.6 °F /  -8 °C 14.7 °F /  -9.6 °C 1018.5 in /  34486.4 hPa WNW 1.6 mph /  2.6 km/h 3.2 mph /  5.1 km/h 83 % 0.0 in /  0 mm
02:47 17.4 °F /  -8.1 °C 14.9 °F /  -9.5 °C 1018.5 in /  34486.4 hPa WNW 1.6 mph /  2.6 km/h 3.2 mph /  5.1 km/h 85 % 0.0 in /  0 mm
02:52 17.3 °F /  -8.2 °C 14.6 °F /  -9.7 °C 1018.5 in /  34486.4 hPa WNW 1.6 mph /  2.6 km/h 3.2 mph /  5.1 km/h 84 % 0.0 in /  0 mm
02:57 17.1 °F /  -8.3 °C 14.6 °F /  -9.7 °C 1018.5 in /  34486.4 hPa WNW 3.2 mph /  5.1 km/h 3.2 mph /  5.1 km/h 85 % 0.0 in /  0 mm
03:02 17.2 °F /  -8.2 °C 14.7 °F /  -9.6 °C 1018.5 in /  34486.4 hPa WNW 1.6 mph /  2.6 km/h 3.2 mph /  5.1 km/h 85 % 0.0 in /  0 mm
03:07 17.1 °F /  -8.3 °C 14.6 °F /  -9.7 °C 1018.2 in /  34476.3 hPa WNW 3.2 mph /  5.1 km/h 3.2 mph /  5.1 km/h 85 % 0.0 in /  0 mm
03:12 16.9 °F /  -8.4 °C 14.5 °F /  -9.7 °C 1018.2 in /  34476.3 hPa WNW 1.6 mph /  2.6 km/h 3.2 mph /  5.1 km/h 86 % 0.0 in /  0 mm
03:17 17.0 °F /  -8.3 °C 14.5 °F /  -9.7 °C 1018.5 in /  34486.4 hPa Calm   3.2 mph /  5.1 km/h 85 % 0.0 in /  0 mm
03:22 17.2 °F /  -8.2 °C 14.5 °F /  -9.7 °C 1018.2 in /  34476.3 hPa Calm   3.2 mph /  5.1 km/h 84 % 0.0 in /  0 mm
03:27 17.5 °F /  -8.1 °C 14.4 °F /  -9.8 °C 1018.2 in /  34476.3 hPa NW 1.6 mph /  2.6 km/h 3.2 mph /  5.1 km/h 82 % 0.0 in /  0 mm
03:32 17.6 °F /  -8 °C 14.5 °F /  -9.7 °C 1018.2 in /  34476.3 hPa NW 1.6 mph /  2.6 km/h 4.8 mph /  7.7 km/h 82 % 0.0 in /  0 mm
03:37 17.8 °F /  -7.9 °C 14.5 °F /  -9.7 °C 1018.2 in /  34476.3 hPa NNW 1.6 mph /  2.6 km/h 4.8 mph /  7.7 km/h 81 % 0.0 in /  0 mm
03:42 17.9 °F /  -7.8 °C 14.4 °F /  -9.8 °C 1018.2 in /  34476.3 hPa NNW 1.6 mph /  2.6 km/h 4.8 mph /  7.7 km/h 80 % 0.0 in /  0 mm
03:47 17.8 °F /  -7.9 °C 14.3 °F /  -9.8 °C 1018.2 in /  34476.3 hPa NNW 1.6 mph /  2.6 km/h 3.2 mph /  5.1 km/h 80 % 0.0 in /  0 mm
03:52 17.8 °F /  -7.9 °C 14.5 °F /  -9.7 °C 1017.8 in /  34462.7 hPa Calm   3.2 mph /  5.1 km/h 81 % 0.0 in /  0 mm
03:57 17.8 °F /  -7.9 °C 14.5 °F /  -9.7 °C 1017.8 in /  34462.7 hPa North 1.6 mph /  2.6 km/h 3.2 mph /  5.1 km/h 81 % 0.0 in /  0 mm
04:02 17.8 °F /  -7.9 °C 14.3 °F /  -9.8 °C 1017.8 in /  34462.7 hPa North 1.6 mph /  2.6 km/h 3.2 mph /  5.1 km/h 80 % 0.0 in /  0 mm
04:07 17.8 °F /  -7.9 °C 14.3 °F /  -9.8 °C 1017.8 in /  34462.7 hPa Calm   3.2 mph /  5.1 km/h 80 % 0.0 in /  0 mm
04:12 17.7 °F /  -7.9 °C 14.2 °F /  -9.9 °C 1017.8 in /  34462.7 hPa NNW 1.6 mph /  2.6 km/h 3.2 mph /  5.1 km/h 80 % 0.0 in /  0 mm
04:17 17.7 °F /  -7.9 °C 14.2 °F /  -9.9 °C 1017.8 in /  34462.7 hPa NW 1.6 mph /  2.6 km/h 3.2 mph /  5.1 km/h 80 % 0.0 in /  0 mm
04:22 17.5 °F /  -8.1 °C 14.2 °F /  -9.9 °C 1017.8 in /  34462.7 hPa Calm   1.6 mph /  2.6 km/h 81 % 0.0 in /  0 mm
04:27 17.4 °F /  -8.1 °C 14.3 °F /  -9.8 °C 1017.8 in /  34462.7 hPa Calm   1.6 mph /  2.6 km/h 82 % 0.0 in /  0 mm
04:32 17.3 °F /  -8.2 °C 14.2 °F /  -9.9 °C 1017.8 in /  34462.7 hPa North 1.6 mph /  2.6 km/h 1.6 mph /  2.6 km/h 82 % 0.0 in /  0 mm
04:37 17.2 °F /  -8.2 °C 14.1 °F /  -9.9 °C 1017.8 in /  34462.7 hPa NNW 1.6 mph /  2.6 km/h 3.2 mph /  5.1 km/h 82 % 0.0 in /  0 mm
04:42 17.1 °F /  -8.3 °C 14.2 °F /  -9.9 °C 1017.8 in /  34462.7 hPa NNE 1.6 mph /  2.6 km/h 3.2 mph /  5.1 km/h 83 % 0.0 in /  0 mm
04:47 17.0 °F /  -8.3 °C 14.1 °F /  -9.9 °C 1017.8 in /  34462.7 hPa North 1.6 mph /  2.6 km/h 3.2 mph /  5.1 km/h 83 % 0.0 in /  0 mm
04:52 16.9 °F /  -8.4 °C 14.0 °F /  -10 °C 1017.8 in /  34462.7 hPa Calm   3.2 mph /  5.1 km/h 83 % 0.0 in /  0 mm
04:57 16.9 °F /  -8.4 °C 14.0 °F /  -10 °C 1017.5 in /  34452.6 hPa North 1.6 mph /  2.6 km/h 3.2 mph /  5.1 km/h 83 % 0.0 in /  0 mm
05:02 16.9 °F /  -8.4 °C 14.0 °F /  -10 °C 1017.5 in /  34452.6 hPa North 1.6 mph /  2.6 km/h 3.2 mph /  5.1 km/h 83 % 0.0 in /  0 mm
05:07 16.9 °F /  -8.4 °C 14.0 °F /  -10 °C 1017.5 in /  34452.6 hPa North 1.6 mph /  2.6 km/h 3.2 mph /  5.1 km/h 83 % 0.0 in /  0 mm
05:12 16.9 °F /  -8.4 °C 14.0 °F /  -10 °C 1017.5 in /  34452.6 hPa Calm   3.2 mph /  5.1 km/h 83 % 0.0 in /  0 mm
05:17 16.8 °F /  -8.4 °C 14.1 °F /  -9.9 °C 1017.5 in /  34452.6 hPa Calm   3.2 mph /  5.1 km/h 84 % 0.0 in /  0 mm
05:22 16.8 °F /  -8.4 °C 14.1 °F /  -9.9 °C 1017.5 in /  34452.6 hPa NNW 1.6 mph /  2.6 km/h 3.2 mph /  5.1 km/h 84 % 0.0 in /  0 mm
05:32 16.7 °F /  -8.5 °C 14.0 °F /  -10 °C 1017.5 in /  34452.6 hPa Calm   3.2 mph /  5.1 km/h 84 % 0.0 in /  0 mm
05:37 16.7 °F /  -8.5 °C 14.0 °F /  -10 °C 1017.5 in /  34452.6 hPa Calm   3.2 mph /  5.1 km/h 84 % 0.0 in /  0 mm
05:42 16.6 °F /  -8.6 °C 13.9 °F /  -10.1 °C 1017.5 in /  34452.6 hPa North 1.6 mph /  2.6 km/h 3.2 mph /  5.1 km/h 84 % 0.0 in /  0 mm
05:47 16.4 °F /  -8.7 °C 13.9 °F /  -10.1 °C 1017.5 in /  34452.6 hPa NNE 1.6 mph /  2.6 km/h 3.2 mph /  5.1 km/h 85 % 0.0 in /  0 mm
05:52 16.3 °F /  -8.7 °C 13.8 °F /  -10.1 °C 1017.5 in /  34452.6 hPa Calm   3.2 mph /  5.1 km/h 85 % 0.0 in /  0 mm
05:57 16.2 °F /  -8.8 °C 13.7 °F /  -10.2 °C 1017.5 in /  34452.6 hPa North 3.2 mph /  5.1 km/h 3.2 mph /  5.1 km/h 85 % 0.0 in /  0 mm
06:02 16.0 °F /  -8.9 °C 13.7 °F /  -10.2 °C 1017.5 in /  34452.6 hPa NNW 1.6 mph /  2.6 km/h 3.2 mph /  5.1 km/h 86 % 0.0 in /  0 mm
06:07 15.9 °F /  -8.9 °C 13.6 °F /  -10.2 °C 1017.5 in /  34452.6 hPa NNW 1.6 mph /  2.6 km/h 4.8 mph /  7.7 km/h 86 % 0.0 in /  0 mm
06:12 15.9 °F /  -8.9 °C 13.7 °F /  -10.2 °C 1017.5 in /  34452.6 hPa NNW 1.6 mph /  2.6 km/h 4.8 mph /  7.7 km/h 87 % 0.0 in /  0 mm
06:17 16.1 °F /  -8.8 °C 13.9 °F /  -10.1 °C 1017.5 in /  34452.6 hPa NNW 1.6 mph /  2.6 km/h 3.2 mph /  5.1 km/h 87 % 0.0 in /  0 mm
06:22 16.1 °F /  -8.8 °C 13.8 °F /  -10.1 °C 1017.5 in /  34452.6 hPa North 1.6 mph /  2.6 km/h 3.2 mph /  5.1 km/h 86 % 0.0 in /  0 mm
06:32 15.9 °F /  -8.9 °C 13.7 °F /  -10.2 °C 1017.5 in /  34452.6 hPa North 1.6 mph /  2.6 km/h 1.6 mph /  2.6 km/h 87 % 0.0 in /  0 mm
06:37 16.0 °F /  -8.9 °C 13.8 °F /  -10.1 °C 1017.5 in /  34452.6 hPa Calm   1.6 mph /  2.6 km/h 87 % 0.0 in /  0 mm
06:42 16.3 °F /  -8.7 °C 14.1 °F /  -9.9 °C 1017.5 in /  34452.6 hPa NNW 1.6 mph /  2.6 km/h 3.2 mph /  5.1 km/h 87 % 0.0 in /  0 mm
06:47 16.6 °F /  -8.6 °C 14.2 °F /  -9.9 °C 1017.5 in /  34452.6 hPa North 4.8 mph /  7.7 km/h 4.8 mph /  7.7 km/h 86 % 0.0 in /  0 mm
06:52 16.7 °F /  -8.5 °C 14.2 °F /  -9.9 °C 1017.5 in /  34452.6 hPa NNE 6.4 mph /  10.3 km/h 8.0 mph /  12.9 km/h 85 % 0.0 in /  0 mm
07:02 17.2 °F /  -8.2 °C 14.3 °F /  -9.8 °C 1017.8 in /  34462.7 hPa NNE 3.2 mph /  5.1 km/h 8.0 mph /  12.9 km/h 83 % 0.0 in /  0 mm
07:12 17.8 °F /  -7.9 °C 14.7 °F /  -9.6 °C 1017.8 in /  34462.7 hPa North 3.2 mph /  5.1 km/h 4.8 mph /  7.7 km/h 82 % 0.0 in /  0 mm
07:17 18.1 °F /  -7.7 °C 15.0 °F /  -9.4 °C 1017.8 in /  34462.7 hPa Calm   4.8 mph /  7.7 km/h 82 % 0.0 in /  0 mm
07:22 18.4 °F /  -7.6 °C 15.1 °F /  -9.4 °C 1017.8 in /  34462.7 hPa North 1.6 mph /  2.6 km/h 4.8 mph /  7.7 km/h 81 % 0.0 in /  0 mm
07:27 18.7 °F /  -7.4 °C 15.4 °F /  -9.2 °C 1017.8 in /  34462.7 hPa North 1.6 mph /  2.6 km/h 4.8 mph /  7.7 km/h 81 % 0.0 in /  0 mm
07:37 19.1 °F /  -7.2 °C 15.4 °F /  -9.2 °C 1017.8 in /  34462.7 hPa North 3.2 mph /  5.1 km/h 4.8 mph /  7.7 km/h 79 % 0.0 in /  0 mm
07:42 19.2 °F /  -7.1 °C 15.5 °F /  -9.2 °C 1017.5 in /  34452.6 hPa NNE 1.6 mph /  2.6 km/h 4.8 mph /  7.7 km/h 79 % 0.0 in /  0 mm
07:52 19.7 °F /  -6.8 °C 16.0 °F /  -8.9 °C 1017.8 in /  34462.7 hPa Calm   3.2 mph /  5.1 km/h 79 % 0.0 in /  0 mm
08:02 21.1 °F /  -6.1 °C 16.3 °F /  -8.7 °C 1017.5 in /  34452.6 hPa Calm   1.6 mph /  2.6 km/h 74 % 0.0 in /  0 mm
08:12 21.1 °F /  -6.1 °C 16.1 °F /  -8.8 °C 1017.5 in /  34452.6 hPa ENE 3.2 mph /  5.1 km/h 4.8 mph /  7.7 km/h 73 % 0.0 in /  0 mm
08:17 21.2 °F /  -6 °C 16.2 °F /  -8.8 °C 1017.5 in /  34452.6 hPa NE 1.6 mph /  2.6 km/h 6.4 mph /  10.3 km/h 73 % 0.0 in /  0 mm
08:22 21.3 °F /  -5.9 °C 16.0 °F /  -8.9 °C 1017.8 in /  34462.7 hPa NNE 3.2 mph /  5.1 km/h 8.0 mph /  12.9 km/h 72 % 0.0 in /  0 mm
08:32 21.7 °F /  -5.7 °C 16.2 °F /  -8.8 °C 1017.8 in /  34462.7 hPa ENE 3.2 mph /  5.1 km/h 8.0 mph /  12.9 km/h 71 % 0.0 in /  0 mm
08:42 22.2 °F /  -5.4 °C 16.5 °F /  -8.6 °C 1017.8 in /  34462.7 hPa ENE 4.8 mph /  7.7 km/h 9.7 mph /  15.6 km/h 70 % 0.0 in /  0 mm
08:47 22.3 °F /  -5.4 °C 15.9 °F /  -8.9 °C 1017.8 in /  34462.7 hPa ENE 8.0 mph /  12.9 km/h 9.7 mph /  15.6 km/h 67 % 0.0 in /  0 mm
08:52 22.4 °F /  -5.3 °C 15.7 °F /  -9.1 °C 1017.8 in /  34462.7 hPa ENE 4.8 mph /  7.7 km/h 11.3 mph /  18.2 km/h 66 % 0.0 in /  0 mm
08:57 22.7 °F /  -5.2 °C 16.0 °F /  -8.9 °C 1017.8 in /  34462.7 hPa NE 4.8 mph /  7.7 km/h 11.3 mph /  18.2 km/h 66 % 0.0 in /  0 mm
09:02 22.8 °F /  -5.1 °C 15.9 °F /  -8.9 °C 1017.8 in /  34462.7 hPa NE 3.2 mph /  5.1 km/h 11.3 mph /  18.2 km/h 65 % 0.0 in /  0 mm
09:07 22.9 °F /  -5.1 °C 15.7 °F /  -9.1 °C 1017.8 in /  34462.7 hPa ENE 6.4 mph /  10.3 km/h 9.7 mph /  15.6 km/h 64 % 0.0 in /  0 mm
09:12 23.1 °F /  -4.9 °C 15.9 °F /  -8.9 °C 1017.8 in /  34462.7 hPa ENE 9.7 mph /  15.6 km/h 9.7 mph /  15.6 km/h 64 % 0.0 in /  0 mm
09:17 23.4 °F /  -4.8 °C 15.4 °F /  -9.2 °C 1017.8 in /  34462.7 hPa East 3.2 mph /  5.1 km/h 9.7 mph /  15.6 km/h 61 % 0.0 in /  0 mm
09:22 23.6 °F /  -4.7 °C 15.6 °F /  -9.1 °C 1017.8 in /  34462.7 hPa ENE 1.6 mph /  2.6 km/h 9.7 mph /  15.6 km/h 61 % 0.0 in /  0 mm
09:32 23.8 °F /  -4.6 °C 15.6 °F /  -9.1 °C 1017.8 in /  34462.7 hPa ENE 4.8 mph /  7.7 km/h 9.7 mph /  15.6 km/h 60 % 0.0 in /  0 mm
09:42 23.9 °F /  -4.5 °C 15.4 °F /  -9.2 °C 1017.8 in /  34462.7 hPa East 3.2 mph /  5.1 km/h 14.5 mph /  23.3 km/h 59 % 0.0 in /  0 mm
09:47 24.2 °F /  -4.3 °C 15.7 °F /  -9.1 °C 1017.8 in /  34462.7 hPa ENE 1.6 mph /  2.6 km/h 14.5 mph /  23.3 km/h 59 % 0.0 in /  0 mm
09:52 24.3 °F /  -4.3 °C 16.0 °F /  -8.9 °C 1017.8 in /  34462.7 hPa ENE 3.2 mph /  5.1 km/h 14.5 mph /  23.3 km/h 60 % 0.0 in /  0 mm
09:57 24.4 °F /  -4.2 °C 16.1 °F /  -8.8 °C 1017.8 in /  34462.7 hPa East 3.2 mph /  5.1 km/h 11.3 mph /  18.2 km/h 60 % 0.0 in /  0 mm
10:02 24.7 °F /  -4.1 °C 16.1 °F /  -8.8 °C 1017.8 in /  34462.7 hPa ESE 3.2 mph /  5.1 km/h 11.3 mph /  18.2 km/h 59 % 0.0 in /  0 mm
10:12 25.3 °F /  -3.7 °C 15.9 °F /  -8.9 °C 1017.8 in /  34462.7 hPa East 4.8 mph /  7.7 km/h 9.7 mph /  15.6 km/h 56 % 0.0 in /  0 mm
10:17 25.5 °F /  -3.6 °C 16.1 °F /  -8.8 °C 1017.8 in /  34462.7 hPa SE 3.2 mph /  5.1 km/h 12.9 mph /  20.8 km/h 56 % 0.0 in /  0 mm
10:22 25.6 °F /  -3.6 °C 16.2 °F /  -8.8 °C 1017.8 in /  34462.7 hPa SE 4.8 mph /  7.7 km/h 12.9 mph /  20.8 km/h 56 % 0.0 in /  0 mm
10:32 25.8 °F /  -3.4 °C 16.4 °F /  -8.7 °C 1017.8 in /  34462.7 hPa ENE 3.2 mph /  5.1 km/h 12.9 mph /  20.8 km/h 56 % 0.0 in /  0 mm
10:37 25.9 °F /  -3.4 °C 16.2 °F /  -8.8 °C 1017.8 in /  34462.7 hPa ENE 8.0 mph /  12.9 km/h 12.9 mph /  20.8 km/h 55 % 0.0 in /  0 mm
10:42 25.9 °F /  -3.4 °C 15.9 °F /  -8.9 °C 1017.8 in /  34462.7 hPa East 3.2 mph /  5.1 km/h 12.9 mph /  20.8 km/h 54 % 0.0 in /  0 mm
10:47 26.2 °F /  -3.2 °C 16.2 °F /  -8.8 °C 1017.8 in /  34462.7 hPa Calm   12.9 mph /  20.8 km/h 54 % 0.0 in /  0 mm
10:52 26.4 °F /  -3.1 °C 16.0 °F /  -8.9 °C 1017.8 in /  34462.7 hPa East 6.4 mph /  10.3 km/h 12.9 mph /  20.8 km/h 53 % 0.0 in /  0 mm
10:57 26.6 °F /  -3 °C 16.2 °F /  -8.8 °C 1017.8 in /  34462.7 hPa ENE 3.2 mph /  5.1 km/h 11.3 mph /  18.2 km/h 53 % 0.0 in /  0 mm
11:02 26.6 °F /  -3 °C 16.2 °F /  -8.8 °C 1017.8 in /  34462.7 hPa NE 6.4 mph /  10.3 km/h 11.3 mph /  18.2 km/h 53 % 0.0 in /  0 mm
11:07 26.6 °F /  -3 °C 16.2 °F /  -8.8 °C 1017.8 in /  34462.7 hPa ENE 3.2 mph /  5.1 km/h 12.9 mph /  20.8 km/h 53 % 0.0 in /  0 mm
11:12 26.7 °F /  -2.9 °C 15.7 °F /  -9.1 °C 1017.8 in /  34462.7 hPa ENE 4.8 mph /  7.7 km/h 14.5 mph /  23.3 km/h 51 % 0.0 in /  0 mm
11:17 26.7 °F /  -2.9 °C 16.0 °F /  -8.9 °C 1017.8 in /  34462.7 hPa NE 4.8 mph /  7.7 km/h 14.5 mph /  23.3 km/h 52 % 0.0 in /  0 mm
11:22 26.9 °F /  -2.8 °C 16.5 °F /  -8.6 °C 1017.8 in /  34462.7 hPa East 6.4 mph /  10.3 km/h 11.3 mph /  18.2 km/h 53 % 0.0 in /  0 mm
11:27 27.2 °F /  -2.7 °C 16.2 °F /  -8.8 °C 1017.8 in /  34462.7 hPa ENE 3.2 mph /  5.1 km/h 11.3 mph /  18.2 km/h 51 % 0.0 in /  0 mm
11:32 27.5 °F /  -2.5 °C 16.1 °F /  -8.8 °C 1017.5 in /  34452.6 hPa SSW 1.6 mph /  2.6 km/h 12.9 mph /  20.8 km/h 50 % 0.0 in /  0 mm
11:37 27.7 °F /  -2.4 °C 16.3 °F /  -8.7 °C 1017.5 in /  34452.6 hPa ENE 8.0 mph /  12.9 km/h 12.9 mph /  20.8 km/h 50 % 0.0 in /  0 mm
11:42 27.6 °F /  -2.4 °C 16.2 °F /  -8.8 °C 1017.5 in /  34452.6 hPa SSE 3.2 mph /  5.1 km/h 12.9 mph /  20.8 km/h 50 % 0.0 in /  0 mm
11:47 27.7 °F /  -2.4 °C 16.6 °F /  -8.6 °C 1017.5 in /  34452.6 hPa ENE 4.8 mph /  7.7 km/h 16.1 mph /  25.9 km/h 51 % 0.0 in /  0 mm
11:52 27.9 °F /  -2.3 °C 16.8 °F /  -8.4 °C 1017.5 in /  34452.6 hPa ENE 9.7 mph /  15.6 km/h 16.1 mph /  25.9 km/h 51 % 0.0 in /  0 mm
11:57 28.3 °F /  -2.1 °C 16.9 °F /  -8.4 °C 1017.5 in /  34452.6 hPa ENE 3.2 mph /  5.1 km/h 16.1 mph /  25.9 km/h 50 % 0.0 in /  0 mm
12:02 28.4 °F /  -2 °C 16.7 °F /  -8.5 °C 1017.5 in /  34452.6 hPa ENE 4.8 mph /  7.7 km/h 12.9 mph /  20.8 km/h 49 % 0.0 in /  0 mm
12:07 28.4 °F /  -2 °C 16.3 °F /  -8.7 °C 1017.5 in /  34452.6 hPa ENE 4.8 mph /  7.7 km/h 12.9 mph /  20.8 km/h 48 % 0.0 in /  0 mm
12:12 28.5 °F /  -1.9 °C 16.4 °F /  -8.7 °C 1017.5 in /  34452.6 hPa NE 11.3 mph /  18.2 km/h 14.5 mph /  23.3 km/h 48 % 0.0 in /  0 mm
12:17 28.8 °F /  -1.8 °C 15.7 °F /  -9.1 °C 1017.5 in /  34452.6 hPa East 14.5 mph /  23.3 km/h 14.5 mph /  23.3 km/h 45 % 0.0 in /  0 mm
12:22 28.8 °F /  -1.8 °C 16.0 °F /  -8.9 °C 1017.5 in /  34452.6 hPa NE 9.7 mph /  15.6 km/h 17.7 mph /  28.5 km/h 46 % 0.0 in /  0 mm
12:27 29.0 °F /  -1.7 °C 15.9 °F /  -8.9 °C 1017.5 in /  34452.6 hPa ENE 9.7 mph /  15.6 km/h 17.7 mph /  28.5 km/h 45 % 0.0 in /  0 mm
12:32 29.1 °F /  -1.6 °C 16.3 °F /  -8.7 °C 1017.5 in /  34452.6 hPa NE 11.3 mph /  18.2 km/h 17.7 mph /  28.5 km/h 46 % 0.0 in /  0 mm
12:37 29.2 °F /  -1.6 °C 16.4 °F /  -8.7 °C 1017.2 in /  34442.4 hPa ENE 1.6 mph /  2.6 km/h 16.1 mph /  25.9 km/h 46 % 0.0 in /  0 mm
12:42 29.4 °F /  -1.4 °C 15.5 °F /  -9.2 °C 1017.5 in /  34452.6 hPa ENE 11.3 mph /  18.2 km/h 22.5 mph /  36.2 km/h 43 % 0.0 in /  0 mm
12:47 29.3 °F /  -1.5 °C 15.4 °F /  -9.2 °C 1017.2 in /  34442.4 hPa ENE 6.4 mph /  10.3 km/h 22.5 mph /  36.2 km/h 43 % 0.0 in /  0 mm
12:52 29.4 °F /  -1.4 °C 15.5 °F /  -9.2 °C 1017.2 in /  34442.4 hPa ENE 8.0 mph /  12.9 km/h 22.5 mph /  36.2 km/h 43 % 0.0 in /  0 mm
12:57 29.9 °F /  -1.2 °C 15.6 °F /  -9.1 °C 1017.2 in /  34442.4 hPa East 6.4 mph /  10.3 km/h 20.9 mph /  33.6 km/h 42 % 0.0 in /  0 mm
13:02 30.3 °F /  -0.9 °C 15.6 °F /  -9.1 °C 1017.2 in /  34442.4 hPa East 3.2 mph /  5.1 km/h 20.9 mph /  33.6 km/h 41 % 0.0 in /  0 mm
13:07 30.3 °F /  -0.9 °C 15.2 °F /  -9.3 °C 1017.2 in /  34442.4 hPa NE 3.2 mph /  5.1 km/h 12.9 mph /  20.8 km/h 40 % 0.0 in /  0 mm
13:12 30.2 °F /  -1 °C 15.5 °F /  -9.2 °C 1017.2 in /  34442.4 hPa NNE 6.4 mph /  10.3 km/h 16.1 mph /  25.9 km/h 41 % 0.0 in /  0 mm
13:17 30.6 °F /  -0.8 °C 15.8 °F /  -9 °C 1017.2 in /  34442.4 hPa ENE 3.2 mph /  5.1 km/h 16.1 mph /  25.9 km/h 41 % 0.0 in /  0 mm
13:22 30.6 °F /  -0.8 °C 15.5 °F /  -9.2 °C 1017.2 in /  34442.4 hPa East 19.3 mph /  31.1 km/h 19.3 mph /  31.1 km/h 40 % 0.0 in /  0 mm
13:27 30.7 °F /  -0.7 °C 15.5 °F /  -9.2 °C 1017.2 in /  34442.4 hPa East 11.3 mph /  18.2 km/h 19.3 mph /  31.1 km/h 40 % 0.0 in /  0 mm
13:32 30.2 °F /  -1 °C 14.7 °F /  -9.6 °C 1017.2 in /  34442.4 hPa NNE 6.4 mph /  10.3 km/h 19.3 mph /  31.1 km/h 39 % 0.0 in /  0 mm
13:37 30.4 °F /  -0.9 °C 15.3 °F /  -9.3 °C 1017.2 in /  34442.4 hPa ESE 1.6 mph /  2.6 km/h 19.3 mph /  31.1 km/h 40 % 0.0 in /  0 mm
13:42 30.7 °F /  -0.7 °C 15.2 °F /  -9.3 °C 1017.2 in /  34442.4 hPa ENE 8.0 mph /  12.9 km/h 17.7 mph /  28.5 km/h 39 % 0.0 in /  0 mm
13:47 30.8 °F /  -0.7 °C 15.2 °F /  -9.3 °C 1017.2 in /  34442.4 hPa ENE 9.7 mph /  15.6 km/h 12.9 mph /  20.8 km/h 39 % 0.0 in /  0 mm
13:52 30.9 °F /  -0.6 °C 15.3 °F /  -9.3 °C 1017.2 in /  34442.4 hPa East 1.6 mph /  2.6 km/h 19.3 mph /  31.1 km/h 39 % 0.0 in /  0 mm
13:57 30.7 °F /  -0.7 °C 14.8 °F /  -9.6 °C 1017.2 in /  34442.4 hPa East 3.2 mph /  5.1 km/h 19.3 mph /  31.1 km/h 38 % 0.0 in /  0 mm
14:02 31.1 °F /  -0.5 °C 15.1 °F /  -9.4 °C 1016.8 in /  34428.8 hPa SE 4.8 mph /  7.7 km/h 19.3 mph /  31.1 km/h 38 % 0.0 in /  0 mm
14:07 31.2 °F /  -0.4 °C 15.2 °F /  -9.3 °C 1016.8 in /  34428.8 hPa East 6.4 mph /  10.3 km/h 14.5 mph /  23.3 km/h 38 % 0.0 in /  0 mm
14:12 31.2 °F /  -0.4 °C 15.2 °F /  -9.3 °C 1016.8 in /  34428.8 hPa NE 4.8 mph /  7.7 km/h 14.5 mph /  23.3 km/h 38 % 0.0 in /  0 mm
14:22 31.8 °F /  -0.1 °C 15.7 °F /  -9.1 °C 1016.8 in /  34428.8 hPa ENE 6.4 mph /  10.3 km/h 14.5 mph /  23.3 km/h 38 % 0.0 in /  0 mm
14:27 31.9 °F /  -0.1 °C 15.8 °F /  -9 °C 1016.5 in /  34418.7 hPa SE 3.2 mph /  5.1 km/h 12.9 mph /  20.8 km/h 38 % 0.0 in /  0 mm
14:32 32.1 °F /  0.1 °C 15.6 °F /  -9.1 °C 1016.8 in /  34428.8 hPa East 6.4 mph /  10.3 km/h 16.1 mph /  25.9 km/h 37 % 0.0 in /  0 mm
14:37 32.1 °F /  0.1 °C 15.6 °F /  -9.1 °C 1016.8 in /  34428.8 hPa NE 3.2 mph /  5.1 km/h 19.3 mph /  31.1 km/h 37 % 0.0 in /  0 mm
14:42 32.6 °F /  0.3 °C 15.1 °F /  -9.4 °C 1016.5 in /  34418.7 hPa SSE 8.0 mph /  12.9 km/h 19.3 mph /  31.1 km/h 35 % 0.0 in /  0 mm
14:47 32.6 °F /  0.3 °C 15.1 °F /  -9.4 °C 1016.5 in /  34418.7 hPa East 1.6 mph /  2.6 km/h 14.5 mph /  23.3 km/h 35 % 0.0 in /  0 mm
14:52 32.7 °F /  0.4 °C 14.8 °F /  -9.6 °C 1016.5 in /  34418.7 hPa ESE 4.8 mph /  7.7 km/h 14.5 mph /  23.3 km/h 34 % 0.0 in /  0 mm
14:57 32.8 °F /  0.4 °C 14.9 °F /  -9.5 °C 1016.5 in /  34418.7 hPa Calm   14.5 mph /  23.3 km/h 34 % 0.0 in /  0 mm
15:02 32.9 °F /  0.5 °C 15.0 °F /  -9.4 °C 1016.5 in /  34418.7 hPa ESE 3.2 mph /  5.1 km/h 11.3 mph /  18.2 km/h 34 % 0.0 in /  0 mm
15:12 33.1 °F /  0.6 °C 14.7 °F /  -9.6 °C 1016.1 in /  34405.1 hPa ESE 3.2 mph /  5.1 km/h 9.7 mph /  15.6 km/h 33 % 0.0 in /  0 mm
15:22 32.7 °F /  0.4 °C 12.9 °F /  -10.6 °C 1016.1 in /  34405.1 hPa East 3.2 mph /  5.1 km/h 12.9 mph /  20.8 km/h 30 % 0.0 in /  0 mm
15:27 32.6 °F /  0.3 °C 13.3 °F /  -10.4 °C 1016.1 in /  34405.1 hPa NE 4.8 mph /  7.7 km/h 14.5 mph /  23.3 km/h 31 % 0.0 in /  0 mm
15:32 32.4 °F /  0.2 °C 13.6 °F /  -10.2 °C 1016.1 in /  34405.1 hPa ESE 4.8 mph /  7.7 km/h 14.5 mph /  23.3 km/h 32 % 0.0 in /  0 mm
15:37 32.4 °F /  0.2 °C 13.6 °F /  -10.2 °C 1016.1 in /  34405.1 hPa NNE 4.8 mph /  7.7 km/h 16.1 mph /  25.9 km/h 32 % 0.0 in /  0 mm
15:42 32.7 °F /  0.4 °C 13.8 °F /  -10.1 °C 1016.1 in /  34405.1 hPa SE 6.4 mph /  10.3 km/h 16.1 mph /  25.9 km/h 32 % 0.0 in /  0 mm
15:47 32.8 °F /  0.4 °C 14.4 °F /  -9.8 °C 1016.1 in /  34405.1 hPa ENE 3.2 mph /  5.1 km/h 16.1 mph /  25.9 km/h 33 % 0.0 in /  0 mm
15:52 33.0 °F /  0.6 °C 15.5 °F /  -9.2 °C 1016.1 in /  34405.1 hPa East 6.4 mph /  10.3 km/h 12.9 mph /  20.8 km/h 35 % 0.0 in /  0 mm
15:57 33.1 °F /  0.6 °C 14.7 °F /  -9.6 °C 1016.1 in /  34405.1 hPa SE 8.0 mph /  12.9 km/h 12.9 mph /  20.8 km/h 33 % 0.0 in /  0 mm
16:02 33.3 °F /  0.7 °C 14.4 °F /  -9.8 °C 1016.1 in /  34405.1 hPa Calm   12.9 mph /  20.8 km/h 32 % 0.0 in /  0 mm
16:12 33.3 °F /  0.7 °C 14.8 °F /  -9.6 °C 1015.8 in /  34395 hPa East 3.2 mph /  5.1 km/h 14.5 mph /  23.3 km/h 33 % 0.0 in /  0 mm
16:17 33.1 °F /  0.6 °C 15.1 °F /  -9.4 °C 1015.8 in /  34395 hPa ENE 6.4 mph /  10.3 km/h 14.5 mph /  23.3 km/h 34 % 0.0 in /  0 mm
16:22 33.1 °F /  0.6 °C 15.6 °F /  -9.1 °C 1015.8 in /  34395 hPa ESE 1.6 mph /  2.6 km/h 14.5 mph /  23.3 km/h 35 % 0.0 in /  0 mm
16:27 33.1 °F /  0.6 °C 15.1 °F /  -9.4 °C 1015.8 in /  34395 hPa ENE 6.4 mph /  10.3 km/h 17.7 mph /  28.5 km/h 34 % 0.0 in /  0 mm
16:32 33.1 °F /  0.6 °C 15.1 °F /  -9.4 °C 1015.8 in /  34395 hPa SE 1.6 mph /  2.6 km/h 17.7 mph /  28.5 km/h 34 % 0.0 in /  0 mm
16:37 33.5 °F /  0.8 °C 15.5 °F /  -9.2 °C 1015.8 in /  34395 hPa SSW 1.6 mph /  2.6 km/h 17.7 mph /  28.5 km/h 34 % 0.0 in /  0 mm
16:42 33.5 °F /  0.8 °C 14.5 °F /  -9.7 °C 1015.8 in /  34395 hPa SSW 6.4 mph /  10.3 km/h 11.3 mph /  18.2 km/h 32 % 0.0 in /  0 mm
16:47 33.5 °F /  0.8 °C 15.9 °F /  -8.9 °C 1015.8 in /  34395 hPa SW 3.2 mph /  5.1 km/h 14.5 mph /  23.3 km/h 35 % 0.0 in /  0 mm
16:52 33.8 °F /  1 °C 15.7 °F /  -9.1 °C 1015.8 in /  34395 hPa East 3.2 mph /  5.1 km/h 14.5 mph /  23.3 km/h 34 % 0.0 in /  0 mm
16:57 33.8 °F /  1 °C 15.3 °F /  -9.3 °C 1015.8 in /  34395 hPa SE 4.8 mph /  7.7 km/h 17.7 mph /  28.5 km/h 33 % 0.0 in /  0 mm
17:02 34.0 °F /  1.1 °C 15.9 °F /  -8.9 °C 1015.8 in /  34395 hPa South 3.2 mph /  5.1 km/h 17.7 mph /  28.5 km/h 34 % 0.0 in /  0 mm
17:12 33.7 °F /  0.9 °C 15.7 °F /  -9.1 °C 1015.8 in /  34395 hPa SSW 3.2 mph /  5.1 km/h 14.5 mph /  23.3 km/h 34 % 0.0 in /  0 mm
17:17 33.9 °F /  1.1 °C 15.8 °F /  -9 °C 1015.5 in /  34384.8 hPa SW 6.4 mph /  10.3 km/h 11.3 mph /  18.2 km/h 34 % 0.0 in /  0 mm
17:22 33.8 °F /  1 °C 16.2 °F /  -8.8 °C 1015.5 in /  34384.8 hPa East 1.6 mph /  2.6 km/h 12.9 mph /  20.8 km/h 35 % 0.0 in /  0 mm
17:27 34.2 °F /  1.2 °C 16.5 °F /  -8.6 °C 1015.5 in /  34384.8 hPa ESE 4.8 mph /  7.7 km/h 12.9 mph /  20.8 km/h 35 % 0.0 in /  0 mm
17:32 34.0 °F /  1.1 °C 15.0 °F /  -9.4 °C 1015.5 in /  34384.8 hPa SW 4.8 mph /  7.7 km/h 14.5 mph /  23.3 km/h 32 % 0.0 in /  0 mm
17:37 34.0 °F /  1.1 °C 15.9 °F /  -8.9 °C 1015.5 in /  34384.8 hPa East 8.0 mph /  12.9 km/h 14.5 mph /  23.3 km/h 34 % 0.0 in /  0 mm
17:42 34.0 °F /  1.1 °C 15.0 °F /  -9.4 °C 1015.5 in /  34384.8 hPa ENE 3.2 mph /  5.1 km/h 14.5 mph /  23.3 km/h 32 % 0.0 in /  0 mm
17:47 34.0 °F /  1.1 °C 15.5 °F /  -9.2 °C 1015.5 in /  34384.8 hPa SSW 4.8 mph /  7.7 km/h 12.9 mph /  20.8 km/h 33 % 0.0 in /  0 mm
17:52 33.9 °F /  1.1 °C 16.7 °F /  -8.5 °C 1015.5 in /  34384.8 hPa SSE 6.4 mph /  10.3 km/h 12.9 mph /  20.8 km/h 36 % 0.0 in /  0 mm
17:57 34.0 °F /  1.1 °C 15.0 °F /  -9.4 °C 1015.5 in /  34384.8 hPa ENE 3.2 mph /  5.1 km/h 12.9 mph /  20.8 km/h 32 % 0.0 in /  0 mm
18:02 33.8 °F /  1 °C 15.3 °F /  -9.3 °C 1015.5 in /  34384.8 hPa ENE 4.8 mph /  7.7 km/h 11.3 mph /  18.2 km/h 33 % 0.0 in /  0 mm
18:07 33.7 °F /  0.9 °C 14.7 °F /  -9.6 °C 1015.5 in /  34384.8 hPa WSW 3.2 mph /  5.1 km/h 12.9 mph /  20.8 km/h 32 % 0.0 in /  0 mm
18:12 33.5 °F /  0.8 °C 15.0 °F /  -9.4 °C 1015.5 in /  34384.8 hPa SSW 3.2 mph /  5.1 km/h 12.9 mph /  20.8 km/h 33 % 0.0 in /  0 mm
18:17 33.6 °F /  0.9 °C 15.6 °F /  -9.1 °C 1015.5 in /  34384.8 hPa South 1.6 mph /  2.6 km/h 12.9 mph /  20.8 km/h 34 % 0.0 in /  0 mm
18:22 33.6 °F /  0.9 °C 15.6 °F /  -9.1 °C 1015.5 in /  34384.8 hPa SSW 6.4 mph /  10.3 km/h 9.7 mph /  15.6 km/h 34 % 0.0 in /  0 mm
18:27 33.2 °F /  0.7 °C 15.7 °F /  -9.1 °C 1015.5 in /  34384.8 hPa SE 1.6 mph /  2.6 km/h 9.7 mph /  15.6 km/h 35 % 0.0 in /  0 mm
18:32 33.2 °F /  0.7 °C 15.7 °F /  -9.1 °C 1015.5 in /  34384.8 hPa Calm   11.3 mph /  18.2 km/h 35 % 0.0 in /  0 mm
18:42 33.6 °F /  0.9 °C 15.1 °F /  -9.4 °C 1015.5 in /  34384.8 hPa Calm   11.3 mph /  18.2 km/h 33 % 0.0 in /  0 mm
18:47 33.8 °F /  1 °C 14.8 °F /  -9.6 °C 1015.5 in /  34384.8 hPa East 3.2 mph /  5.1 km/h 9.7 mph /  15.6 km/h 32 % 0.0 in /  0 mm
18:52 33.4 °F /  0.8 °C 14.0 °F /  -10 °C 1015.5 in /  34384.8 hPa SSE 1.6 mph /  2.6 km/h 9.7 mph /  15.6 km/h 31 % 0.0 in /  0 mm
18:57 33.4 °F /  0.8 °C 14.5 °F /  -9.7 °C 1015.5 in /  34384.8 hPa SE 1.6 mph /  2.6 km/h 9.7 mph /  15.6 km/h 32 % 0.0 in /  0 mm
19:02 33.2 °F /  0.7 °C 14.3 °F /  -9.8 °C 1015.5 in /  34384.8 hPa Calm   9.7 mph /  15.6 km/h 32 % 0.0 in /  0 mm
19:07 33.1 °F /  0.6 °C 15.6 °F /  -9.1 °C 1015.5 in /  34384.8 hPa SSE 3.2 mph /  5.1 km/h 8.0 mph /  12.9 km/h 35 % 0.0 in /  0 mm
19:12 33.0 °F /  0.6 °C 14.6 °F /  -9.7 °C 1015.5 in /  34384.8 hPa ENE 1.6 mph /  2.6 km/h 8.0 mph /  12.9 km/h 33 % 0.0 in /  0 mm
19:17 32.9 °F /  0.5 °C 14.5 °F /  -9.7 °C 1015.5 in /  34384.8 hPa ENE 6.4 mph /  10.3 km/h 9.7 mph /  15.6 km/h 33 % 0.0 in /  0 mm
19:22 32.7 °F /  0.4 °C 14.3 °F /  -9.8 °C 1015.5 in /  34384.8 hPa East 3.2 mph /  5.1 km/h 9.7 mph /  15.6 km/h 33 % 0.0 in /  0 mm
19:27 32.5 °F /  0.3 °C 14.6 °F /  -9.7 °C 1015.5 in /  34384.8 hPa East 1.6 mph /  2.6 km/h 9.7 mph /  15.6 km/h 34 % 0.0 in /  0 mm
19:32 32.3 °F /  0.2 °C 14.4 °F /  -9.8 °C 1015.5 in /  34384.8 hPa ENE 3.2 mph /  5.1 km/h 9.7 mph /  15.6 km/h 34 % 0.0 in /  0 mm
19:37 32.2 °F /  0.1 °C 14.8 °F /  -9.6 °C 1015.5 in /  34384.8 hPa East 6.4 mph /  10.3 km/h 9.7 mph /  15.6 km/h 35 % 0.0 in /  0 mm
19:42 32.3 °F /  0.2 °C 14.9 °F /  -9.5 °C 1015.5 in /  34384.8 hPa ENE 3.2 mph /  5.1 km/h 9.7 mph /  15.6 km/h 35 % 0.0 in /  0 mm
19:47 32.4 °F /  0.2 °C 15.0 °F /  -9.4 °C 1015.5 in /  34384.8 hPa Calm   9.7 mph /  15.6 km/h 35 % 0.0 in /  0 mm
19:52 32.6 °F /  0.3 °C 15.1 °F /  -9.4 °C 1015.5 in /  34384.8 hPa Calm   9.7 mph /  15.6 km/h 35 % 0.0 in /  0 mm
19:57 32.5 °F /  0.3 °C 15.5 °F /  -9.2 °C 1015.5 in /  34384.8 hPa ESE 4.8 mph /  7.7 km/h 9.7 mph /  15.6 km/h 36 % 0.0 in /  0 mm
20:02 32.3 °F /  0.2 °C 15.8 °F /  -9 °C 1015.5 in /  34384.8 hPa East 6.4 mph /  10.3 km/h 8.0 mph /  12.9 km/h 37 % 0.0 in /  0 mm
20:12 31.7 °F /  -0.2 °C 16.0 °F /  -8.9 °C 1015.5 in /  34384.8 hPa ENE 4.8 mph /  7.7 km/h 9.7 mph /  15.6 km/h 39 % 0.0 in /  0 mm
20:17 31.3 °F /  -0.4 °C 16.1 °F /  -8.8 °C 1015.8 in /  34395 hPa East 1.6 mph /  2.6 km/h 9.7 mph /  15.6 km/h 40 % 0.0 in /  0 mm
20:22 30.9 °F /  -0.6 °C 16.1 °F /  -8.8 °C 1015.8 in /  34395 hPa East 4.8 mph /  7.7 km/h 8.0 mph /  12.9 km/h 41 % 0.0 in /  0 mm
20:27 30.7 °F /  -0.7 °C 16.3 °F /  -8.7 °C 1015.8 in /  34395 hPa ESE 1.6 mph /  2.6 km/h 8.0 mph /  12.9 km/h 42 % 0.0 in /  0 mm
20:32 30.6 °F /  -0.8 °C 16.6 °F /  -8.6 °C 1015.8 in /  34395 hPa East 4.8 mph /  7.7 km/h 8.0 mph /  12.9 km/h 43 % 0.0 in /  0 mm
20:37 30.6 °F /  -0.8 °C 16.6 °F /  -8.6 °C 1015.8 in /  34395 hPa East 3.2 mph /  5.1 km/h 8.0 mph /  12.9 km/h 43 % 0.0 in /  0 mm
20:42 30.6 °F /  -0.8 °C 16.6 °F /  -8.6 °C 1015.8 in /  34395 hPa East 3.2 mph /  5.1 km/h 6.4 mph /  10.3 km/h 43 % 0.0 in /  0 mm
20:47 30.6 °F /  -0.8 °C 16.2 °F /  -8.8 °C 1015.8 in /  34395 hPa East 4.8 mph /  7.7 km/h 9.7 mph /  15.6 km/h 42 % 0.0 in /  0 mm
20:52 30.7 °F /  -0.7 °C 16.3 °F /  -8.7 °C 1015.8 in /  34395 hPa Calm   9.7 mph /  15.6 km/h 42 % 0.0 in /  0 mm
21:02 30.6 °F /  -0.8 °C 16.6 °F /  -8.6 °C 1015.8 in /  34395 hPa Calm   4.8 mph /  7.7 km/h 43 % 0.0 in /  0 mm
21:07 30.5 °F /  -0.8 °C 16.9 °F /  -8.4 °C 1015.8 in /  34395 hPa Calm   4.8 mph /  7.7 km/h 44 % 0.0 in /  0 mm
21:12 30.3 °F /  -0.9 °C 16.7 °F /  -8.5 °C 1015.8 in /  34395 hPa Calm   3.2 mph /  5.1 km/h 44 % 0.0 in /  0 mm
21:17 30.1 °F /  -1.1 °C 16.9 °F /  -8.4 °C 1015.8 in /  34395 hPa Calm     45 % 0.0 in /  0 mm
21:22 29.9 °F /  -1.2 °C 17.0 °F /  -8.3 °C 1015.8 in /  34395 hPa Calm     46 % 0.0 in /  0 mm
21:32 29.7 °F /  -1.3 °C 17.2 °F /  -8.2 °C 1015.8 in /  34395 hPa Calm     47 % 0.0 in /  0 mm
21:37 29.3 °F /  -1.5 °C 17.2 °F /  -8.2 °C 1015.8 in /  34395 hPa Calm     48 % 0.0 in /  0 mm
21:47 28.3 °F /  -2.1 °C 17.2 °F /  -8.2 °C 1015.8 in /  34395 hPa Calm     51 % 0.0 in /  0 mm
21:52 27.7 °F /  -2.4 °C 17.2 °F /  -8.2 °C 1015.8 in /  34395 hPa Calm     53 % 0.0 in /  0 mm
21:57 27.2 °F /  -2.7 °C 16.8 °F /  -8.4 °C 1015.8 in /  34395 hPa Calm     53 % 0.0 in /  0 mm
22:02 26.9 °F /  -2.8 °C 16.8 °F /  -8.4 °C 1015.8 in /  34395 hPa Calm     54 % 0.0 in /  0 mm
22:07 26.7 °F /  -2.9 °C 16.6 °F /  -8.6 °C 1015.8 in /  34395 hPa Calm     54 % 0.0 in /  0 mm
22:12 26.4 °F /  -3.1 °C 17.2 °F /  -8.2 °C 1016.1 in /  34405.1 hPa Calm     57 % 0.0 in /  0 mm
22:17 25.8 °F /  -3.4 °C 16.9 °F /  -8.4 °C 1016.1 in /  34405.1 hPa Calm     58 % 0.0 in /  0 mm
22:32 24.9 °F /  -3.9 °C 16.9 °F /  -8.4 °C 1016.1 in /  34405.1 hPa Calm     61 % 0.0 in /  0 mm
22:37 24.7 °F /  -4.1 °C 16.9 °F /  -8.4 °C 1016.1 in /  34405.1 hPa Calm     62 % 0.0 in /  0 mm
22:42 24.4 °F /  -4.2 °C 16.6 °F /  -8.6 °C 1016.1 in /  34405.1 hPa Calm     62 % 0.0 in /  0 mm
22:47 24.3 °F /  -4.3 °C 16.6 °F /  -8.6 °C 1016.1 in /  34405.1 hPa Calm     62 % 0.0 in /  0 mm
22:52 24.3 °F /  -4.3 °C 16.6 °F /  -8.6 °C 1016.1 in /  34405.1 hPa Calm     62 % 0.0 in /  0 mm
22:57 24.3 °F /  -4.3 °C 16.6 °F /  -8.6 °C 1016.1 in /  34405.1 hPa Calm     62 % 0.0 in /  0 mm
23:02 24.3 °F /  -4.3 °C 16.6 °F /  -8.6 °C 1016.1 in /  34405.1 hPa Calm     62 % 0.0 in /  0 mm
23:07 24.2 °F /  -4.3 °C 17.0 °F /  -8.3 °C 1016.1 in /  34405.1 hPa Calm     64 % 0.0 in /  0 mm
23:12 23.8 °F /  -4.6 °C 16.6 °F /  -8.6 °C 1016.5 in /  34418.7 hPa Calm     64 % 0.0 in /  0 mm
23:17 23.4 °F /  -4.8 °C 16.4 °F /  -8.7 °C 1016.5 in /  34418.7 hPa Calm     65 % 0.0 in /  0 mm
23:22 23.2 °F /  -4.9 °C 16.5 °F /  -8.6 °C 1016.1 in /  34405.1 hPa Calm     66 % 0.0 in /  0 mm
23:27 23.0 °F /  -5 °C 16.3 °F /  -8.7 °C 1016.5 in /  34418.7 hPa Calm     66 % 0.0 in /  0 mm
23:32 23.2 °F /  -4.9 °C 16.5 °F /  -8.6 °C 1016.5 in /  34418.7 hPa NW 1.6 mph /  2.6 km/h   66 % 0.0 in /  0 mm
23:37 23.3 °F /  -4.8 °C 16.6 °F /  -8.6 °C 1016.5 in /  34418.7 hPa NNW 1.6 mph /  2.6 km/h 3.2 mph /  5.1 km/h 66 % 0.0 in /  0 mm
23:42 23.3 °F /  -4.8 °C 16.6 °F /  -8.6 °C 1016.5 in /  34418.7 hPa Calm   3.2 mph /  5.1 km/h 66 % 0.0 in /  0 mm
23:47 23.2 °F /  -4.9 °C 16.5 °F /  -8.6 °C 1016.5 in /  34418.7 hPa Calm   3.2 mph /  5.1 km/h 66 % 0.0 in /  0 mm
23:52 22.9 °F /  -5.1 °C 16.7 °F /  -8.5 °C 1016.5 in /  34418.7 hPa North 1.6 mph /  2.6 km/h 3.2 mph /  5.1 km/h 68 % 0.0 in /  0 mm
23:57 23.1 °F /  -4.9 °C 16.6 °F /  -8.6 °C 1016.5 in /  34418.7 hPa North 1.6 mph /  2.6 km/h 3.2 mph /  5.1 km/h 67 % 0.0 in /  0 mm
Meteo18
Compliments of Weather Underground - 4 mb

Script developed by  Jim McMurry - jmcmurry@mwt.net Adapted for the template by  Wim van der Kuil - Leuven-Template.eu

You find our weather info also at:

European Weather Network

Weather Underground

Equipment we use:

Weather-station
Davis Vue

Weather-program
Meteobridge

Weather-server
Raspberry PI 2 B+

Provider
1 and 1

Davis Vue

Meteobridge

Raspberry PI 2 B+

1 and 1